Terminal Aerodrome Forecast
Issued by NWS

Home | Current Version | Previous Version | Text Only | Print | Product List | Glossary On
Versions: 1 2 3 4 5 6 7 8 9 10 11 12 13
000
FTUS46 KLOX 212300
TAFPMD
TAF
KPMD 212331Z 2200/2224 26015G22KT P6SM VCTS SCT080CB BKN100
     FM220300 23012KT P6SM SCT150
     FM220900 VRB03KT P6SM SKC
     FM222000 24012KT P6SM SKC
     FM222200 24017G25KT P6SM SKC=

USA.gov is the U.S. government's official web portal to all federal, state and local government web resources and services.